Time;durP1;ratioP1;P1;durP2;ratioP2;P2;SDS_P1;SDS_P2;PMS_P1;PMS_P2;Temp;Humidity;BMP_temperature;BMP_pressure;BME280_temperature;BME280_humidity;BME280_pressure;Samples;Min_cycle;Max_cycle;Signal;HPM_P1;HPM_P2
2023/06/12 00:00:05;;;;;;;4.90;3.97;;;;;;;-146.58;100.00;69501.63;5033507;28;20099;-65
2023/06/12 00:02:31;;;;;;;6.40;4.32;;;;;;;-146.58;100.00;69501.63;5031650;28;20057;-65
2023/06/12 00:04:57;;;;;;;14.23;5.15;;;;;;;-146.58;100.00;69501.63;5032789;28;20124;-65
2023/06/12 00:07:25;;;;;;;5.85;3.97;;;;;;;-146.58;100.00;69501.63;5031830;28;20099;-65
2023/06/12 00:09:51;;;;;;;8.55;4.55;;;;;;;-146.58;100.00;69501.63;5033344;28;20057;-65
2023/06/12 00:12:17;;;;;;;6.88;4.55;;;;;;;-146.58;100.00;69501.63;5031174;28;20096;-65
2023/06/12 00:14:42;;;;;;;14.85;4.90;;;;;;;-146.58;100.00;69501.63;5032962;28;20033;-65
2023/06/12 00:17:07;;;;;;;6.43;3.55;;;;;;;-146.58;100.00;69501.63;5031649;28;20133;-65
2023/06/12 00:19:33;;;;;;;8.25;4.22;;;;;;;-146.58;100.00;69501.63;5032803;28;20018;-65
2023/06/12 00:21:58;;;;;;;5.28;4.53;;;;;;;-146.58;100.00;69501.63;5031502;28;20103;-65
2023/06/12 00:24:23;;;;;;;4.82;4.30;;;;;;;-146.58;100.00;69501.63;5032729;28;20032;-66
2023/06/12 00:26:49;;;;;;;12.30;4.47;;;;;;;-146.58;100.00;69501.63;5030880;28;20544;-66
2023/06/12 00:29:14;;;;;;;5.18;4.47;;;;;;;-146.58;100.00;69501.63;5031554;28;20373;-65
2023/06/12 00:31:40;;;;;;;4.68;3.13;;;;;;;-146.58;100.00;69501.63;5032880;28;20033;-65
2023/06/12 00:34:05;;;;;;;7.32;4.43;;;;;;;-146.58;100.00;69501.63;5030856;28;20048;-65
2023/06/12 00:36:30;;;;;;;4.35;3.95;;;;;;;-146.58;100.00;69501.63;5032856;28;20029;-65
2023/06/12 00:38:56;;;;;;;7.47;3.72;;;;;;;-146.58;100.00;69501.63;5031027;28;20041;-67
2023/06/12 00:41:21;;;;;;;5.90;3.28;;;;;;;-146.58;100.00;69501.63;5032729;28;20622;-67
2023/06/12 00:43:46;;;;;;;5.85;3.92;;;;;;;-146.58;100.00;69501.63;5030964;28;20037;-69
2023/06/12 00:46:12;;;;;;;4.30;3.60;;;;;;;-146.58;100.00;69501.63;5032402;28;20036;-68
2023/06/12 00:48:40;;;;;;;4.25;3.85;;;;;;;-146.58;100.00;69501.63;5030829;28;20094;-69
2023/06/12 00:51:08;;;;;;;6.00;4.20;;;;;;;-146.58;100.00;69501.63;5032299;28;20424;-69
2023/06/12 00:53:34;;;;;;;9.57;5.60;;;;;;;-146.58;100.00;69501.63;5030961;28;20042;-70
2023/06/12 00:55:59;;;;;;;9.48;3.63;;;;;;;-146.58;100.00;69501.63;5031979;28;20075;-70
2023/06/12 00:58:25;;;;;;;5.60;4.07;;;;;;;-146.58;100.00;69501.63;5030940;28;20465;-70
2023/06/12 01:00:54;;;;;;;5.68;4.28;;;;;;;-146.58;100.00;69501.63;5032026;28;20021;-70
2023/06/12 01:03:21;;;;;;;4.65;3.92;;;;;;;-146.58;100.00;69501.63;5029713;28;20075;-68
2023/06/12 01:05:47;;;;;;;6.35;5.50;;;;;;;-146.58;100.00;69501.63;5032219;28;20029;-68
2023/06/12 01:08:17;;;;;;;7.32;3.70;;;;;;;-146.58;100.00;69501.63;5030632;28;20025;-67
2023/06/12 01:10:56;;;;;;;4.80;4.40;;;;;;;-146.58;100.00;69501.63;5031649;28;20036;-67
2023/06/12 01:13:22;;;;;;;7.25;5.20;;;;;;;-146.58;100.00;69501.63;5030615;28;20623;-67
2023/06/12 01:15:48;;;;;;;7.05;5.15;;;;;;;-146.58;100.00;69501.63;5032010;28;20037;-67
2023/06/12 01:18:14;;;;;;;7.93;6.00;;;;;;;-146.58;100.00;69501.63;5030474;28;20087;-67
2023/06/12 01:20:40;;;;;;;9.02;5.35;;;;;;;-146.58;100.00;69501.63;5031603;28;20083;-67
2023/06/12 01:23:18;;;;;;;7.18;4.05;;;;;;;-146.58;100.00;69501.63;5030266;28;20025;-67
2023/06/12 01:26:25;;;;;;;5.70;5.20;;;;;;;-146.58;100.00;69501.63;5010152;28;20046;-67
2023/06/12 01:29:22;;;;;;;6.38;3.53;;;;;;;-146.58;100.00;69501.63;5010367;28;20538;-67
2023/06/12 01:32:05;;;;;;;11.15;5.13;;;;;;;-146.58;100.00;69501.63;5006132;28;20119;-68
2023/06/12 01:34:56;;;;;;;5.07;4.60;;;;;;;-146.58;100.00;69501.63;5010415;28;20034;-67
2023/06/12 01:37:42;;;;;;;4.50;4.00;;;;;;;-146.58;100.00;69501.63;5011952;28;20025;-68
2023/06/12 01:40:09;;;;;;;5.22;4.57;;;;;;;-146.58;100.00;69501.63;5010340;28;20073;-68
2023/06/12 01:42:35;;;;;;;5.82;4.07;;;;;;;-146.58;100.00;69501.63;5012006;28;20022;-67
2023/06/12 01:45:00;;;;;;;6.75;4.50;;;;;;;-146.58;100.00;69501.63;5009774;28;20128;-67
2023/06/12 01:47:26;;;;;;;7.70;4.88;;;;;;;-146.58;100.00;69501.63;5011521;28;20041;-67
2023/06/12 01:49:51;;;;;;;6.18;5.47;;;;;;;-146.58;100.00;69501.63;5010289;28;20038;-67
2023/06/12 01:52:17;;;;;;;9.77;5.75;;;;;;;-146.58;100.00;69501.63;5011556;28;20466;-67
2023/06/12 01:54:45;;;;;;;5.13;4.32;;;;;;;-146.58;100.00;69501.63;5009835;28;20053;-67
2023/06/12 01:57:11;;;;;;;9.52;6.70;;;;;;;-146.58;100.00;69501.63;5011496;28;20030;-67
2023/06/12 01:59:37;;;;;;;5.32;4.63;;;;;;;-146.58;100.00;69501.63;5009788;28;20065;-67
2023/06/12 02:02:02;;;;;;;5.25;4.03;;;;;;;-146.58;100.00;69501.63;5011122;28;20075;-65
2023/06/12 02:04:29;;;;;;;7.50;5.05;;;;;;;-146.58;100.00;69501.63;5009937;28;20121;-67
2023/06/12 02:06:54;;;;;;;5.68;4.95;;;;;;;-146.58;100.00;69501.63;5011259;28;20056;-67
2023/06/12 02:09:19;;;;;;;9.50;5.80;;;;;;;-146.58;100.00;69501.63;5009989;28;20489;-67
2023/06/12 02:11:45;;;;;;;6.07;4.85;;;;;;;-146.58;100.00;69501.63;5010957;28;20022;-67
2023/06/12 02:14:10;;;;;;;5.35;4.18;;;;;;;-146.58;100.00;69501.63;5009308;28;20033;-67
2023/06/12 02:16:35;;;;;;;5.70;5.13;;;;;;;-146.58;100.00;69501.63;5011246;28;20033;-68
2023/06/12 02:19:01;;;;;;;15.52;6.13;;;;;;;-146.58;100.00;69501.63;5009278;28;20022;-68
2023/06/12 02:21:26;;;;;;;14.45;4.88;;;;;;;-146.58;100.00;69501.63;5011003;28;20026;-68
2023/06/12 02:23:54;;;;;;;11.13;4.03;;;;;;;-146.58;100.00;69501.63;5010936;28;20465;-68
2023/06/12 02:26:19;;;;;;;6.28;5.50;;;;;;;-146.58;100.00;69501.63;5009344;28;20037;-67
2023/06/12 02:29:04;;;;;;;13.00;5.15;;;;;;;-146.58;100.00;69501.63;5011185;28;20547;-67
2023/06/12 02:31:30;;;;;;;5.72;5.05;;;;;;;-146.58;100.00;69501.63;5029639;28;20431;-68
2023/06/12 02:33:55;;;;;;;6.60;5.57;;;;;;;-146.58;100.00;69501.63;5030092;28;20025;-68
2023/06/12 02:36:20;;;;;;;9.95;5.50;;;;;;;-146.58;100.00;69501.63;5028826;28;20554;-68
2023/06/12 02:38:46;;;;;;;11.93;5.28;;;;;;;-146.58;100.00;69501.63;5030698;28;20118;-68
2023/06/12 02:41:12;;;;;;;10.57;5.43;;;;;;;-146.58;100.00;69501.63;5028844;28;20041;-68
2023/06/12 02:43:38;;;;;;;6.70;4.90;;;;;;;-146.58;100.00;69501.63;5030651;28;20076;-68
2023/06/12 02:46:03;;;;;;;7.10;5.07;;;;;;;-146.58;100.00;69501.63;5029294;28;20656;-67
2023/06/12 02:48:29;;;;;;;8.00;5.57;;;;;;;-146.58;100.00;69501.63;5030597;28;20037;-67
2023/06/12 02:50:54;;;;;;;6.10;4.68;;;;;;;-146.58;100.00;69501.63;5028852;28;20501;-67
2023/06/12 02:53:19;;;;;;;6.30;4.35;;;;;;;-146.58;100.00;69501.63;5030805;28;20037;-67
2023/06/12 02:55:45;;;;;;;9.57;5.05;;;;;;;-146.58;100.00;69501.63;5028430;28;20476;-67
2023/06/12 02:58:10;;;;;;;6.95;6.05;;;;;;;-146.58;100.00;69501.63;5030816;28;20017;-67
2023/06/12 03:00:36;;;;;;;6.28;5.15;;;;;;;-146.58;100.00;69501.63;5029126;28;20053;-67
2023/06/12 03:03:02;;;;;;;9.15;5.13;;;;;;;-146.58;100.00;69501.63;5029621;28;20068;-67
2023/06/12 03:05:28;;;;;;;8.73;5.28;;;;;;;-146.58;100.00;69501.63;5028963;28;20037;-67
2023/06/12 03:07:53;;;;;;;8.20;6.57;;;;;;;-146.58;100.00;69501.63;5030211;28;20072;-67
2023/06/12 03:10:18;;;;;;;8.30;5.80;;;;;;;-146.58;100.00;69501.63;5028589;28;20033;-67
2023/06/12 03:12:44;;;;;;;8.57;5.28;;;;;;;-146.58;100.00;69501.63;5030166;28;20037;-67
2023/06/12 03:15:10;;;;;;;8.13;5.32;;;;;;;-146.58;100.00;69501.63;5029121;28;20128;-67
2023/06/12 03:17:35;;;;;;;8.93;6.75;;;;;;;-146.58;100.00;69501.63;5030114;28;20536;-67
2023/06/12 03:20:04;;;;;;;11.95;7.10;;;;;;;-146.58;100.00;69501.63;5028586;28;20041;-68
2023/06/12 03:22:29;;;;;;;7.03;5.45;;;;;;;-146.58;100.00;69501.63;5030336;28;20485;-68
2023/06/12 03:24:54;;;;;;;8.57;5.63;;;;;;;-146.58;100.00;69501.63;5026895;28;20048;-68
2023/06/12 03:27:21;;;;;;;10.43;6.90;;;;;;;-146.58;100.00;69501.63;5033524;28;20107;-68
2023/06/12 03:29:46;;;;;;;10.02;5.53;;;;;;;-146.58;100.00;69501.63;5032448;28;20095;-68
2023/06/12 03:32:11;;;;;;;7.05;5.75;;;;;;;-146.58;100.00;69501.63;5033619;28;20026;-68
2023/06/12 03:34:36;;;;;;;5.43;4.93;;;;;;;-146.58;100.00;69501.63;5032453;28;20116;-68
2023/06/12 03:37:02;;;;;;;8.73;6.25;;;;;;;-146.58;100.00;69501.63;5033796;28;20033;-68
2023/06/12 03:39:27;;;;;;;7.95;5.63;;;;;;;-146.58;100.00;69501.63;5031995;28;20037;-68
2023/06/12 03:41:56;;;;;;;13.70;7.40;;;;;;;-146.58;100.00;69501.63;5033674;28;20097;-69
2023/06/12 03:44:21;;;;;;;12.00;6.40;;;;;;;-146.58;100.00;69501.63;5032406;28;20041;-68
2023/06/12 03:46:47;;;;;;;7.25;6.10;;;;;;;-146.58;100.00;69501.63;5033159;28;20018;-68
2023/06/12 03:49:12;;;;;;;10.75;6.07;;;;;;;-146.58;100.00;69501.63;5031948;28;20026;-68
2023/06/12 03:51:38;;;;;;;9.40;6.22;;;;;;;-146.58;100.00;69501.63;5033617;28;20033;-68
2023/06/12 03:54:03;;;;;;;8.73;7.63;;;;;;;-146.58;100.00;69501.63;5031689;28;20052;-68
2023/06/12 03:56:28;;;;;;;13.20;5.93;;;;;;;-146.58;100.00;69501.63;5033631;28;20040;-68
2023/06/12 03:58:54;;;;;;;8.93;5.22;;;;;;;-146.58;100.00;69501.63;5033183;28;20029;-68
2023/06/12 04:01:19;;;;;;;6.47;5.85;;;;;;;-146.58;100.00;69501.63;5031680;28;20053;-68
2023/06/12 04:03:45;;;;;;;8.70;6.10;;;;;;;-146.58;100.00;69501.63;5032686;28;20042;-68
2023/06/12 04:06:11;;;;;;;8.38;6.30;;;;;;;-146.58;100.00;69501.63;5030989;28;20061;-67
2023/06/12 04:08:37;;;;;;;8.07;7.00;;;;;;;-146.58;100.00;69501.63;5032582;28;20126;-67
2023/06/12 04:11:03;;;;;;;9.40;6.00;;;;;;;-146.58;100.00;69501.63;5031548;28;20045;-67
2023/06/12 04:13:29;;;;;;;11.27;7.43;;;;;;;-146.58;100.00;69501.63;5033082;28;20057;-66
2023/06/12 04:15:57;;;;;;;8.27;5.60;;;;;;;-146.58;100.00;69501.63;5030643;28;20081;-66
2023/06/12 04:18:22;;;;;;;10.10;6.37;;;;;;;-146.58;100.00;69501.63;5032970;28;20036;-66
2023/06/12 04:20:49;;;;;;;11.55;5.85;;;;;;;-146.58;100.00;69501.63;5030859;28;20041;-66
2023/06/12 04:23:16;;;;;;;10.52;7.53;;;;;;;-146.58;100.00;69501.63;5032619;28;20018;-66
2023/06/12 04:25:42;;;;;;;7.53;6.25;;;;;;;-146.58;100.00;69501.63;5031466;28;20040;-66
2023/06/12 04:28:13;;;;;;;7.60;6.55;;;;;;;-146.58;100.00;69501.63;5031189;28;20477;-66
2023/06/12 04:30:38;;;;;;;8.02;6.93;;;;;;;-146.58;100.00;69501.63;5032624;28;20033;-66
2023/06/12 04:33:03;;;;;;;7.25;6.55;;;;;;;-146.58;100.00;69501.63;5031410;28;20033;-64
2023/06/12 04:35:29;;;;;;;10.70;5.78;;;;;;;-146.58;100.00;69501.63;5032539;28;20079;-69
2023/06/12 04:37:55;;;;;;;9.10;5.88;;;;;;;-146.58;100.00;69501.63;5031028;28;20040;-69
2023/06/12 04:40:22;;;;;;;7.22;6.55;;;;;;;-146.58;100.00;69501.63;5031301;28;20049;-68
2023/06/12 04:42:47;;;;;;;12.13;5.82;;;;;;;-146.58;100.00;69501.63;5032590;28;20029;-68
2023/06/12 04:45:13;;;;;;;10.77;8.30;;;;;;;-146.58;100.00;69501.63;5030928;28;20037;-68
2023/06/12 04:47:39;;;;;;;9.50;7.35;;;;;;;-146.58;100.00;69501.63;5032598;28;20022;-68
2023/06/12 04:50:06;;;;;;;13.20;7.15;;;;;;;-146.58;100.00;69501.63;5031053;28;20437;-68
2023/06/12 04:52:32;;;;;;;10.90;7.20;;;;;;;-146.58;100.00;69501.63;5031976;28;20034;-69
2023/06/12 04:54:59;;;;;;;10.18;6.70;;;;;;;-146.58;100.00;69501.63;5030731;28;20105;-68
2023/06/12 04:57:25;;;;;;;9.65;6.63;;;;;;;-146.58;100.00;69501.63;5032383;28;20036;-68
2023/06/12 04:59:52;;;;;;;6.30;5.78;;;;;;;-146.58;100.00;69501.63;5030362;28;20049;-65
2023/06/12 05:02:18;;;;;;;7.85;5.55;;;;;;;-146.58;100.00;69501.63;5032207;28;20396;-64
2023/06/12 05:04:43;;;;;;;8.38;7.03;;;;;;;-146.58;100.00;69501.63;5030752;28;20041;-64
2023/06/12 05:07:16;;;;;;;7.50;6.70;;;;;;;-146.58;100.00;69501.63;5032068;28;20535;-63
2023/06/12 05:09:47;;;;;;;10.18;6.03;;;;;;;-146.58;100.00;69501.63;5030653;28;20120;-63
2023/06/12 05:12:13;;;;;;;8.02;7.18;;;;;;;-146.58;100.00;69501.63;5032167;28;20055;-63
2023/06/12 05:14:40;;;;;;;7.97;5.47;;;;;;;-146.58;100.00;69501.63;5030296;28;20416;-63
2023/06/12 05:17:05;;;;;;;13.18;6.32;;;;;;;-146.58;100.00;69501.63;5032061;28;20104;-63
2023/06/12 05:19:31;;;;;;;4.25;3.80;;;;;;;-146.58;100.00;69501.63;5030655;28;20561;-63
2023/06/12 05:21:56;;;;;;;8.18;5.97;;;;;;;-146.58;100.00;69501.63;5031775;28;20048;-63
2023/06/12 05:24:21;;;;;;;10.65;6.05;;;;;;;-146.58;100.00;69501.63;5030416;28;20045;-63
2023/06/12 05:26:47;;;;;;;8.82;5.65;;;;;;;-146.58;100.00;69501.63;5031684;28;20025;-63
2023/06/12 05:29:12;;;;;;;14.85;7.05;;;;;;;-146.58;100.00;69501.63;5030566;28;20045;-63
2023/06/12 05:31:38;;;;;;;7.93;5.57;;;;;;;-146.58;100.00;69501.63;5031179;28;20484;-63
2023/06/12 05:34:03;;;;;;;8.68;4.80;;;;;;;-146.58;100.00;69501.63;5030317;28;20046;-63
2023/06/12 05:36:28;;;;;;;7.05;4.70;;;;;;;-146.58;100.00;69501.63;5031990;28;20029;-64
2023/06/12 05:38:54;;;;;;;11.10;5.82;;;;;;;-146.58;100.00;69501.63;5029650;28;20412;-63
2023/06/12 05:41:19;;;;;;;7.25;5.03;;;;;;;-146.58;100.00;69501.63;5031369;28;20029;-64
2023/06/12 05:43:46;;;;;;;7.70;5.03;;;;;;;-146.58;100.00;69501.63;5030258;28;20045;-66
2023/06/12 05:46:13;;;;;;;7.25;6.20;;;;;;;-146.58;100.00;69501.63;5031318;28;20059;-66
2023/06/12 05:48:38;;;;;;;7.93;5.50;;;;;;;-146.58;100.00;69501.63;5029983;28;20038;-66
2023/06/12 05:51:07;;;;;;;10.68;5.10;;;;;;;-146.58;100.00;69501.63;5031491;28;20495;-66
2023/06/12 05:53:33;;;;;;;8.48;5.00;;;;;;;-146.58;100.00;69501.63;5029699;28;20410;-67
2023/06/12 05:55:58;;;;;;;8.32;4.78;;;;;;;-146.58;100.00;69501.63;5031394;28;20029;-67
2023/06/12 05:58:24;;;;;;;7.53;5.70;;;;;;;-146.58;100.00;69501.63;5029985;28;20039;-66
2023/06/12 06:00:49;;;;;;;8.82;5.47;;;;;;;-146.58;100.00;69501.63;5030747;28;20027;-66
2023/06/12 06:03:15;;;;;;;5.93;4.75;;;;;;;-146.58;100.00;69501.63;5025997;28;20056;-66
2023/06/12 06:05:41;;;;;;;15.93;5.82;;;;;;;-146.58;100.00;69501.63;5029623;28;20047;-66
2023/06/12 06:08:06;;;;;;;5.82;4.80;;;;;;;-146.58;100.00;69501.63;5028965;28;20025;-66
2023/06/12 06:10:31;;;;;;;9.90;6.05;;;;;;;-146.58;100.00;69501.63;5031126;28;20468;-66
2023/06/12 06:12:57;;;;;;;8.35;4.75;;;;;;;20.97;100.00;166054.53;5030816;28;20274;-66
2023/06/12 06:15:23;;;;;;;7.32;4.95;;;;;;;21.07;100.00;166081.72;5029241;28;20037;-65
2023/06/12 06:17:48;;;;;;;9.60;4.78;;;;;;;21.25;100.00;166129.25;5031035;28;20032;-66
2023/06/12 06:20:15;;;;;;;9.57;5.13;;;;;;;-146.58;100.00;69501.63;5029217;28;20480;-66
2023/06/12 06:22:41;;;;;;;4.60;4.18;;;;;;;21.58;100.00;166214.84;5030226;28;20472;-66
2023/06/12 06:25:09;;;;;;;11.85;5.03;;;;;;;21.58;100.00;166214.84;5029541;28;20045;-66
2023/06/12 06:27:34;;;;;;;6.80;4.67;;;;;;;22.11;100.00;166356.13;5030895;28;20100;-66
2023/06/12 06:30:00;;;;;;;7.88;5.45;;;;;;;22.34;100.00;166415.91;5028624;28;20129;-66
2023/06/12 06:32:25;;;;;;;5.55;4.28;;;;;;;-146.58;100.00;69501.63;5031053;28;20059;-66
2023/06/12 06:34:51;;;;;;;6.88;4.70;;;;;;;-146.58;100.00;69501.63;5029274;28;20045;-67
2023/06/12 06:37:17;;;;;;;7.07;4.53;;;;;;;-146.58;100.00;69501.63;5030619;28;20516;-66
2023/06/12 06:39:42;;;;;;;7.60;4.50;;;;;;;22.34;100.00;166415.91;5028925;28;20041;-66
2023/06/12 06:42:07;;;;;;;11.75;6.10;;;;;;;-146.58;100.00;69501.63;5030996;28;20108;-67
2023/06/12 06:44:33;;;;;;;4.90;4.45;;;;;;;-146.58;100.00;69501.63;5029104;28;20037;-67
2023/06/12 06:46:58;;;;;;;7.15;4.20;;;;;;;22.94;100.00;166573.63;5030470;28;20057;-67
2023/06/12 06:49:23;;;;;;;7.95;5.40;;;;;;;22.99;100.00;166587.19;5029211;28;20034;-67
2023/06/12 06:51:49;;;;;;;5.35;4.53;;;;;;;23.07;100.00;166607.59;5030123;28;20026;-68
2023/06/12 06:54:14;;;;;;;7.43;6.07;;;;;;;23.16;100.00;166632.03;5029436;28;20091;-66
2023/06/12 06:56:40;;;;;;;10.52;4.88;;;;;;;23.22;100.00;166647.06;5030343;28;20029;-66
2023/06/12 06:59:05;;;;;;;6.32;4.18;;;;;;;23.34;100.00;166679.72;5029123;28;20408;-66
2023/06/12 07:01:33;;;;;;;14.52;4.93;;;;;;;23.54;100.00;166732.69;5032557;28;20477;-66
2023/06/12 07:03:58;;;;;;;7.33;4.57;;;;;;;23.71;100.00;166776.22;5032799;28;20049;-66
2023/06/12 07:06:24;;;;;;;8.82;4.80;;;;;;;23.79;100.00;166797.97;5034139;28;20057;-66
2023/06/12 07:08:49;;;;;;;5.65;4.97;;;;;;;23.95;100.00;166840.16;5032790;28;20041;-66
2023/06/12 07:11:15;;;;;;;9.18;5.03;;;;;;;24.00;100.00;166853.78;5034829;28;20021;-66
2023/06/12 07:13:40;;;;;;;10.52;5.10;;;;;;;24.17;100.00;166897.28;5032466;28;20041;-67
2023/06/12 07:16:06;;;;;;;13.35;5.65;;;;;;;24.31;100.00;166934.00;5034170;28;20036;-67
2023/06/12 07:18:31;;;;;;;8.05;5.07;;;;;;;24.45;100.00;166970.75;5032793;28;20063;-67
2023/06/12 07:20:56;;;;;;;5.35;4.30;;;;;;;24.53;100.00;166993.84;5034001;28;20033;-66
2023/06/12 07:23:22;;;;;;;7.30;5.03;;;;;;;24.65;100.00;167025.16;5031267;28;20026;-67
2023/06/12 07:25:47;;;;;;;7.82;5.45;;;;;;;24.77;100.00;167055.09;5034054;28;20037;-64
2023/06/12 07:28:13;;;;;;;8.02;4.80;;;;;;;24.79;100.00;167061.94;5030280;28;20365;-65
2023/06/12 07:30:38;;;;;;;14.55;5.93;;;;;;;24.73;100.00;167044.25;5016031;28;20025;-65
2023/06/12 07:33:03;;;;;;;5.95;4.75;;;;;;;24.87;100.00;167082.34;5033862;28;20496;-65
2023/06/12 07:35:29;;;;;;;8.30;4.53;;;;;;;24.97;100.00;167109.56;5032037;28;20033;-66
2023/06/12 07:37:54;;;;;;;6.38;5.35;;;;;;;25.10;100.00;167143.53;5033480;28;20025;-65
2023/06/12 07:40:20;;;;;;;6.93;4.45;;;;;;;25.25;100.00;167183.03;5032578;28;20168;-65
2023/06/12 07:42:45;;;;;;;7.03;4.50;;;;;;;25.31;100.00;167199.34;5033549;28;20029;-65
2023/06/12 07:45:11;;;;;;;9.45;4.72;;;;;;;25.53;100.00;167256.53;5028979;28;20544;-65
2023/06/12 07:47:36;;;;;;;5.40;4.93;;;;;;;25.61;100.00;167276.97;5033314;28;20033;-65
2023/06/12 07:50:02;;;;;;;6.80;4.30;;;;;;;25.53;100.00;167256.53;5031524;28;20045;-65
2023/06/12 07:52:27;;;;;;;18.17;5.75;;;;;;;25.62;100.00;167281.03;5033668;28;20025;-66
2023/06/12 07:54:53;;;;;;;5.22;4.82;;;;;;;25.65;100.00;167287.84;5031809;28;20515;-65
2023/06/12 07:57:18;;;;;;;9.55;7.13;;;;;;;25.75;100.00;167313.69;5033880;28;20025;-65
2023/06/12 07:59:44;;;;;;;6.85;3.97;;;;;;;25.86;100.00;167343.66;5031238;28;20132;-65
2023/06/12 08:02:10;;;;;;;12.27;4.50;;;;;;;25.90;100.00;167354.53;5032669;28;20036;-65
2023/06/12 08:04:40;;;;;;;8.43;6.03;;;;;;;25.97;100.00;167372.25;5031432;28;20053;-65
2023/06/12 08:07:09;;;;;;;4.63;4.22;;;;;;;26.25;100.00;167445.78;5032249;28;20026;-65
2023/06/12 08:09:34;;;;;;;6.70;5.35;;;;;;;26.44;100.00;167496.16;5031220;28;20033;-65
2023/06/12 08:12:00;;;;;;;5.75;5.15;;;;;;;26.56;100.00;167528.81;5031774;28;20040;-65
2023/06/12 08:14:25;;;;;;;5.93;4.65;;;;;;;26.72;100.00;167569.66;5030465;28;20056;-65
2023/06/12 08:16:51;;;;;;;10.70;6.00;;;;;;;26.94;100.00;167626.91;5033156;28;20026;-65
2023/06/12 08:19:16;;;;;;;9.23;4.75;;;;;;;27.29;100.00;167720.88;5031680;28;20066;-65
2023/06/12 08:21:41;;;;;;;7.20;4.53;;;;;;;27.51;100.00;167779.53;5032509;28;20044;-65
2023/06/12 08:24:07;;;;;;;7.60;3.75;;;;;;;27.48;100.00;167769.94;5031832;28;20124;-65
2023/06/12 08:26:33;;;;;;;6.97;4.72;;;;;;;27.51;100.00;167779.53;5033216;28;20104;-65
2023/06/12 08:28:59;;;;;;;7.22;5.03;;;;;;;27.60;100.00;167801.28;5030990;28;20049;-65
2023/06/12 08:31:24;;;;;;;8.32;4.57;;;;;;;27.56;100.00;167791.75;5033068;28;20022;-65
2023/06/12 08:33:49;;;;;;;6.50;4.55;;;;;;;27.47;100.00;167767.28;5031309;28;20068;-65
2023/06/12 08:36:15;;;;;;;11.15;4.35;;;;;;;27.55;100.00;167790.41;5032823;28;20472;-65
2023/06/12 08:38:40;;;;;;;4.75;4.32;;;;;;;27.86;100.00;167872.16;5031422;28;20423;-65
2023/06/12 08:41:05;;;;;;;9.15;4.88;;;;;;;28.06;100.00;167923.94;5032980;28;20029;-65
2023/06/12 08:43:33;;;;;;;5.72;4.97;;;;;;;28.17;100.00;167953.94;5030883;28;20400;-65
2023/06/12 08:46:03;;;;;;;10.27;4.88;;;;;;;28.42;100.00;168017.97;5032427;28;20048;-65
2023/06/12 08:48:28;;;;;;;18.15;7.88;;;;;;;28.48;100.00;168035.66;5031650;28;20038;-65
2023/06/12 08:50:54;;;;;;;6.00;5.03;;;;;;;28.76;100.00;168109.34;5032006;28;20029;-66
2023/06/12 08:53:20;;;;;;;5.43;4.35;;;;;;;28.94;100.00;168155.66;5031373;28;20037;-66
2023/06/12 08:55:46;;;;;;;6.55;4.63;;;;;;;29.21;100.00;168227.88;5032113;28;20434;-65
2023/06/12 08:58:11;;;;;;;4.53;4.13;;;;;;;29.49;100.00;168300.19;5030755;28;20025;-65
2023/06/12 09:00:37;;;;;;;6.00;4.75;;;;;;;29.36;100.00;168267.50;5032688;28;20388;-65
2023/06/12 09:03:04;;;;;;;6.70;4.43;;;;;;;29.37;100.00;168270.22;5032010;28;20045;-65
2023/06/12 09:05:38;;;;;;;4.13;3.50;;;;;;;29.19;100.00;168221.09;5030717;28;20104;-65
2023/06/12 09:08:05;;;;;;;7.07;4.88;;;;;;;29.26;100.00;168240.16;5032066;28;20021;-65
2023/06/12 09:10:34;;;;;;;6.10;4.53;;;;;;;29.29;100.00;168248.38;5011432;28;20053;-66
2023/06/12 09:13:05;;;;;;;9.10;4.80;;;;;;;29.11;100.00;168202.00;5011963;28;20155;-66
2023/06/12 09:15:32;;;;;;;4.57;4.15;;;;;;;29.10;100.00;168199.28;5011422;28;20116;-66
2023/06/12 09:17:57;;;;;;;6.20;4.25;;;;;;;29.17;100.00;168215.63;5010730;28;20021;-65
2023/06/12 09:20:28;;;;;;;4.15;3.55;;;;;;;29.25;100.00;168237.44;5008638;28;20493;-65
2023/06/12 09:22:55;;;;;;;4.88;4.38;;;;;;;29.40;100.00;168277.03;5011882;28;20543;-66
2023/06/12 09:25:21;;;;;;;7.57;4.93;;;;;;;29.51;100.00;168305.66;5010421;28;20089;-66
2023/06/12 09:27:47;;;;;;;5.13;4.63;;;;;;;29.68;100.00;168351.97;5009955;28;20036;-66
2023/06/12 09:30:13;;;;;;;11.02;4.50;;;;;;;29.65;100.00;168343.84;5010519;28;20037;-65
2023/06/12 09:32:41;;;;;;;5.28;4.40;;;;;;;29.86;100.00;168399.69;5011778;28;20030;-65
2023/06/12 09:35:06;;;;;;;11.02;5.85;;;;;;;29.86;100.00;168398.34;5009958;28;20087;-66
2023/06/12 09:37:32;;;;;;;6.40;4.75;;;;;;;29.82;100.00;168387.47;5011881;28;20034;-66
2023/06/12 09:40:11;;;;;;;6.72;4.78;;;;;;;29.60;100.00;168330.16;5025441;28;20063;-65
2023/06/12 09:42:38;;;;;;;9.77;5.22;;;;;;;29.58;100.00;168326.09;5031341;28;20426;-66
2023/06/12 09:45:20;;;;;;;6.28;4.10;;;;;;;29.64;100.00;168341.09;5014069;28;20038;-65
2023/06/12 09:47:49;;;;;;;4.85;4.32;;;;;;;29.83;100.00;168391.56;5011524;28;20022;-65
2023/06/12 09:50:16;;;;;;;9.15;4.47;;;;;;;29.99;100.00;168433.84;5010000;28;20550;-65
2023/06/12 09:52:55;;;;;;;6.05;4.07;;;;;;;29.66;97.85;168345.19;5011367;28;20041;-65
2023/06/12 09:55:26;;;;;;;6.15;4.72;;;;;;;29.42;100.00;168283.84;5010406;28;20113;-65
2023/06/12 09:57:52;;;;;;;5.03;4.38;;;;;;;29.42;100.00;168283.84;5011281;28;20103;-65
2023/06/12 10:00:19;;;;;;;4.75;3.97;;;;;;;29.34;100.00;168260.69;5024538;28;20060;-65
2023/06/12 10:02:53;;;;;;;6.40;5.10;;;;;;;29.50;100.00;168302.94;5030546;28;20463;-65
2023/06/12 10:05:25;;;;;;;6.00;4.43;;;;;;;29.66;100.00;168346.56;5029513;28;20461;-66
2023/06/12 10:07:53;;;;;;;7.25;4.53;;;;;;;29.88;100.00;168403.81;5030110;28;20032;-65
2023/06/12 10:10:19;;;;;;;7.72;6.00;;;;;;;29.89;100.00;168406.56;5029189;28;20076;-65
2023/06/12 10:12:44;;;;;;;4.63;4.22;;;;;;;29.76;97.67;168372.47;5030010;28;20598;-65
2023/06/12 10:15:12;;;;;;;8.60;4.75;;;;;;;29.82;100.00;168388.81;5029599;28;20053;-65
2023/06/12 10:17:39;;;;;;;13.10;5.22;;;;;;;29.87;97.25;168401.09;5030971;28;20025;-66
2023/06/12 10:20:06;;;;;;;10.30;3.93;;;;;;;29.93;96.98;168417.50;5028534;28;20037;-65
2023/06/12 10:22:32;;;;;;;7.07;5.18;;;;;;;30.18;95.44;168482.97;5028649;28;20120;-65
2023/06/12 10:24:59;;;;;;;5.75;3.95;;;;;;;30.27;92.15;168507.47;5012921;28;20663;-65
2023/06/12 10:27:25;;;;;;;7.15;4.80;;;;;;;30.44;95.11;168551.13;5010000;28;20033;-66
2023/06/12 10:29:58;;;;;;;5.25;4.38;;;;;;;30.39;95.60;168540.22;5018983;28;20139;-65
2023/06/12 10:32:23;;;;;;;8.00;5.38;;;;;;;30.36;90.33;168530.69;5030692;28;20036;-65
2023/06/12 10:34:53;;;;;;;12.70;4.28;;;;;;;30.31;90.01;168518.41;5028758;28;20046;-65
2023/06/12 10:37:28;;;;;;;5.70;4.15;;;;;;;30.04;86.88;168447.53;5030394;28;20021;-65
2023/06/12 10:40:15;;;;;;;9.30;5.25;;;;;;;30.20;92.11;168488.38;5021569;28;20141;-65
2023/06/12 10:42:47;;;;;;;16.67;4.53;;;;;;;30.37;90.65;168533.41;5007737;28;20440;-65
2023/06/12 10:45:18;;;;;;;5.70;3.53;;;;;;;30.33;89.26;168523.88;5026792;28;20060;-65
2023/06/12 10:48:01;;;;;;;6.63;4.50;;;;;;;30.14;90.24;168472.03;5029818;28;20033;-66
2023/06/12 10:50:27;;;;;;;4.47;4.00;;;;;;;30.33;90.22;168523.88;5029345;28;20412;-65
2023/06/12 10:52:56;;;;;;;3.65;3.35;;;;;;;30.36;90.78;168532.03;5030491;28;20033;-65
2023/06/12 10:55:23;;;;;;;4.65;4.25;;;;;;;30.60;90.69;168593.47;5028813;28;20076;-65
2023/06/12 10:57:49;;;;;;;5.40;4.07;;;;;;;30.79;91.38;168643.94;5030765;28;20028;-66
2023/06/12 11:00:19;;;;;;;5.72;4.50;;;;;;;30.81;89.68;168649.38;5029174;28;20128;-66
2023/06/12 11:02:59;;;;;;;5.20;4.43;;;;;;;30.76;90.71;168637.09;5029897;28;20501;-66
2023/06/12 11:05:26;;;;;;;5.43;4.50;;;;;;;30.80;88.58;168646.63;5029041;28;20136;-65
2023/06/12 11:07:54;;;;;;;7.88;5.00;;;;;;;30.82;86.88;168652.09;5030476;28;20028;-65
2023/06/12 11:10:19;;;;;;;8.45;3.97;;;;;;;30.88;85.47;168668.47;5028716;28;20041;-65